Terminal Aerodrome Forecast
Issued by NWS

Home | Current Version | Previous Version | Text Only | Print | Product List | Glossary On
Versions: 1 2 3 4 5 6 7 8 9 10 11 12 13 14 15 16 17 18 19 20
000
FTUS41 KPBZ 261952 AAA
TAFLBE
TAF AMD
KLBE 261952Z 2620/2718 08006KT P6SM SCT050 BKN120
     FM262200 16012G18KT P6SM BKN035
     FM270000 17008KT P6SM -SHRA OVC025
     FM271000 23005KT P6SM VCSH OVC015=

USA.gov is the U.S. government's official web portal to all federal, state and local government web resources and services.